createdAt,value
2022-08-26T00:02:14.115Z,100329.16
2022-08-26T00:04:44.153Z,100328.53
2022-08-26T00:07:12.392Z,100326.00
2022-08-26T00:09:40.673Z,100322.66
2022-08-26T00:12:12.140Z,100328.19
2022-08-26T00:14:41.858Z,100333.69
2022-08-26T00:17:12.113Z,100332.94
2022-08-26T00:19:40.513Z,100327.72
2022-08-26T00:22:09.093Z,100326.13
2022-08-26T00:24:37.293Z,100329.09
2022-08-26T00:27:06.593Z,100333.72
2022-08-26T00:29:35.597Z,100325.13
2022-08-26T00:32:07.366Z,100324.47
2022-08-26T00:34:37.874Z,100321.19
2022-08-26T00:37:09.386Z,100331.94
2022-08-26T00:39:38.653Z,100329.50
2022-08-26T00:42:07.113Z,100327.88
2022-08-26T00:44:35.572Z,100320.69
2022-08-26T00:47:08.003Z,100321.25
2022-08-26T00:49:40.332Z,100333.19
2022-08-26T00:52:13.067Z,100332.00
2022-08-26T00:54:47.089Z,100338.59
2022-08-26T00:57:18.894Z,100328.59
2022-08-26T00:59:52.415Z,100327.44
2022-08-26T01:02:21.532Z,100329.78
2022-08-26T01:04:56.219Z,100331.41
2022-08-26T01:07:27.545Z,100322.44
2022-08-26T01:10:00.732Z,100332.88
2022-08-26T01:12:32.837Z,100334.59
2022-08-26T01:15:02.181Z,100343.31
2022-08-26T01:17:30.612Z,100343.09
2022-08-26T01:20:09.073Z,100340.28
2022-08-26T01:22:50.432Z,100339.28
2022-08-26T01:25:22.353Z,100347.03
2022-08-26T01:27:51.732Z,100344.22
2022-08-26T01:30:21.092Z,100341.47
2022-08-26T01:32:51.591Z,100337.91
2022-08-26T01:35:20.573Z,100343.06
2022-08-26T01:37:55.255Z,100339.59
2022-08-26T01:40:29.742Z,100345.03
2022-08-26T01:42:58.421Z,100346.97
2022-08-26T01:45:30.160Z,100346.28
2022-08-26T01:48:03.052Z,100357.88
2022-08-26T01:50:35.974Z,100353.53
2022-08-26T01:53:09.511Z,100356.16
2022-08-26T01:55:42.612Z,100355.25
2022-08-26T01:58:14.952Z,100355.25
2022-08-26T02:00:44.098Z,100364.19
2022-08-26T02:03:19.032Z,100354.69
2022-08-26T02:05:51.544Z,100351.19
2022-08-26T02:08:25.303Z,100356.50
2022-08-26T02:10:55.025Z,100352.94
2022-08-26T02:13:25.993Z,100352.16
2022-08-26T02:15:56.442Z,100360.97
2022-08-26T02:18:25.953Z,100365.34
2022-08-26T02:20:56.152Z,100360.97
2022-08-26T02:23:26.572Z,100361.09
2022-08-26T02:26:01.325Z,100371.75
2022-08-26T02:28:34.794Z,100373.69
2022-08-26T02:31:02.915Z,100365.00
2022-08-26T02:33:33.432Z,100365.84
2022-08-26T02:36:04.472Z,100371.97
2022-08-26T02:38:34.072Z,100372.09
2022-08-26T02:41:02.432Z,100371.34
2022-08-26T02:43:31.772Z,100367.06
2022-08-26T02:46:02.663Z,100375.75
2022-08-26T02:48:31.582Z,100368.63
2022-08-26T02:51:02.072Z,100368.84
2022-08-26T02:53:32.132Z,100369.13
2022-08-26T02:56:08.369Z,100365.84
2022-08-26T02:58:36.892Z,100367.91
2022-08-26T03:01:05.802Z,100361.22
2022-08-26T03:03:35.093Z,100362.22
2022-08-26T03:06:03.272Z,100372.94
2022-08-26T03:08:31.712Z,100365.13
2022-08-26T03:11:01.590Z,100365.34
2022-08-26T03:13:31.730Z,100361.19
2022-08-26T03:16:02.782Z,100360.59
2022-08-26T03:18:31.392Z,100362.44
2022-08-26T03:21:00.073Z,100368.66
2022-08-26T03:23:28.452Z,100359.81
2022-08-26T03:25:57.013Z,100358.22
2022-08-26T03:28:27.200Z,100359.38
2022-08-26T03:30:57.694Z,100361.22
2022-08-26T03:33:26.852Z,100355.28
2022-08-26T03:35:56.252Z,100354.53
2022-08-26T03:38:26.254Z,100352.72
2022-08-26T03:40:56.672Z,100352.50
2022-08-26T03:43:27.140Z,100344.81
2022-08-26T03:45:56.976Z,100341.84
2022-08-26T03:48:25.763Z,100342.06
2022-08-26T03:50:54.172Z,100333.34
2022-08-26T03:53:23.820Z,100344.69
2022-08-26T03:55:52.272Z,100341.16
2022-08-26T03:58:21.032Z,100343.94
2022-08-26T04:00:50.192Z,100337.13
2022-08-26T04:03:39.732Z,100333.00
2022-08-26T04:06:09.390Z,100341.78
2022-08-26T04:08:38.271Z,100339.88
2022-08-26T04:11:07.779Z,100333.72
2022-08-26T04:13:36.555Z,100338.16
2022-08-26T04:16:05.592Z,100334.72
2022-08-26T04:18:38.271Z,100333.09
2022-08-26T04:21:15.792Z,100325.13
2022-08-26T04:23:47.759Z,100336.63
2022-08-26T04:26:16.832Z,100328.13
2022-08-26T04:28:45.371Z,100331.88
2022-08-26T04:31:16.024Z,100332.06
2022-08-26T04:33:47.573Z,100329.41
2022-08-26T04:36:19.779Z,100334.69
2022-08-26T04:38:50.698Z,100337.31
2022-08-26T04:41:20.792Z,100329.44
2022-08-26T04:43:50.392Z,100333.94
2022-08-26T04:46:23.107Z,100331.72
2022-08-26T04:48:54.532Z,100329.34
2022-08-26T04:51:28.097Z,100322.38
2022-08-26T04:53:57.653Z,100324.25
2022-08-26T04:56:26.731Z,100331.22
2022-08-26T04:58:55.171Z,100325.78
2022-08-26T05:01:23.969Z,100327.34
2022-08-26T05:03:54.848Z,100322.06
2022-08-26T05:06:23.452Z,100321.22
2022-08-26T05:08:51.754Z,100328.31
2022-08-26T05:11:22.082Z,100332.59
2022-08-26T05:13:51.252Z,100331.84
2022-08-26T05:16:20.111Z,100317.84
2022-08-26T05:18:48.512Z,100329.16
2022-08-26T05:21:21.032Z,100337.63
2022-08-26T05:23:51.712Z,100332.13
2022-08-26T05:26:23.081Z,100329.41
2022-08-26T05:28:54.568Z,100326.63
2022-08-26T05:31:26.863Z,100331.69
2022-08-26T05:33:57.611Z,100319.28
2022-08-26T05:36:30.032Z,100327.88
2022-08-26T05:38:59.292Z,100323.28
2022-08-26T05:41:36.109Z,100321.34
2022-08-26T05:44:07.772Z,100329.09
2022-08-26T05:46:38.506Z,100329.72
2022-08-26T05:49:12.561Z,100328.50
2022-08-26T05:51:47.668Z,100330.03
2022-08-26T05:54:22.382Z,100331.72
2022-08-26T05:56:52.011Z,100339.53
2022-08-26T05:59:21.384Z,100332.50
2022-08-26T06:01:54.667Z,100338.63
2022-08-26T06:04:27.084Z,100334.09
2022-08-26T06:06:57.632Z,100336.56
2022-08-26T06:09:26.912Z,100344.34
2022-08-26T06:11:55.947Z,100332.84
2022-08-26T06:14:25.959Z,100336.19
2022-08-26T06:16:55.012Z,100337.81
2022-08-26T06:19:23.352Z,100339.41
2022-08-26T06:21:54.669Z,100337.59
2022-08-26T06:24:42.140Z,100340.13
2022-08-26T06:27:13.940Z,100343.53
2022-08-26T06:29:43.731Z,100339.00
2022-08-26T06:32:12.495Z,100345.03
2022-08-26T06:34:41.051Z,100343.06
2022-08-26T06:37:09.852Z,100345.56
2022-08-26T06:39:41.210Z,100343.78
2022-08-26T06:42:11.811Z,100349.03
2022-08-26T06:44:44.671Z,100353.31
2022-08-26T06:47:13.174Z,100347.97
2022-08-26T06:49:41.752Z,100344.31
2022-08-26T06:52:10.112Z,100345.75
2022-08-26T06:54:44.214Z,100351.69
2022-08-26T06:57:12.971Z,100347.91
2022-08-26T06:59:42.893Z,100348.53
2022-08-26T07:02:13.589Z,100345.50
2022-08-26T07:04:42.352Z,100345.38
2022-08-26T07:07:14.755Z,100348.78
2022-08-26T07:09:44.652Z,100346.06
2022-08-26T07:12:13.079Z,100351.97
2022-08-26T07:14:41.600Z,100340.28
2022-08-26T07:17:16.317Z,100351.56
2022-08-26T07:19:45.254Z,100360.16
2022-08-26T07:22:14.228Z,100356.25
2022-08-26T07:24:42.744Z,100356.69
2022-08-26T07:27:15.832Z,100349.25
2022-08-26T07:29:44.967Z,100351.72
2022-08-26T07:32:14.778Z,100347.97
2022-08-26T07:34:43.602Z,100354.72
2022-08-26T07:37:12.674Z,100349.81
2022-08-26T07:39:43.290Z,100358.53
2022-08-26T07:42:14.380Z,100345.78
2022-08-26T07:44:43.793Z,100351.47
2022-08-26T07:47:25.075Z,100353.72
2022-08-26T07:49:55.995Z,100355.91
2022-08-26T07:52:26.948Z,100364.34
2022-08-26T07:54:56.491Z,100364.94
2022-08-26T07:57:26.732Z,100364.88
2022-08-26T07:59:55.908Z,100358.53
2022-08-26T08:02:26.916Z,100366.13
2022-08-26T08:04:56.937Z,100362.28
2022-08-26T08:07:25.740Z,100368.88
2022-08-26T08:10:11.605Z,100366.91
2022-08-26T08:12:42.237Z,100370.19
2022-08-26T08:15:13.749Z,100368.00
2022-08-26T08:17:43.453Z,100367.94
2022-08-26T08:20:13.841Z,100358.97
2022-08-26T08:22:46.171Z,100371.50
2022-08-26T08:25:16.112Z,100368.78
2022-08-26T08:27:46.672Z,100367.94
2022-08-26T08:30:22.656Z,100367.94
2022-08-26T08:32:51.612Z,100367.06
2022-08-26T08:35:22.656Z,100374.56
2022-08-26T08:37:54.408Z,100368.78
2022-08-26T08:40:25.128Z,100368.63
2022-08-26T08:42:59.993Z,100371.28
2022-08-26T08:45:37.073Z,100375.34
2022-08-26T08:48:12.352Z,100377.09
2022-08-26T08:50:45.801Z,100371.34
2022-08-26T08:53:17.474Z,100367.31
2022-08-26T08:55:59.773Z,100367.75
2022-08-26T08:58:42.459Z,100364.13
2022-08-26T09:01:35.478Z,100368.94
2022-08-26T09:04:28.432Z,100359.75
2022-08-26T09:06:59.794Z,100365.38
2022-08-26T09:09:34.118Z,100366.16
2022-08-26T09:12:03.671Z,100362.56
2022-08-26T09:14:33.832Z,100364.31
2022-08-26T09:17:09.958Z,100364.63
2022-08-26T09:19:44.511Z,100360.53
2022-08-26T09:22:29.173Z,100360.41
2022-08-26T09:24:57.800Z,100360.03
2022-08-26T09:27:40.252Z,100353.19
2022-08-26T09:30:12.573Z,100353.31
2022-08-26T09:32:41.033Z,100352.31
2022-08-26T09:35:12.191Z,100356.91
2022-08-26T09:40:19.423Z,100345.75
2022-08-26T09:42:48.992Z,100335.50
2022-08-26T09:45:29.191Z,100335.59
2022-08-26T09:48:01.316Z,100332.75
2022-08-26T09:50:36.674Z,100328.47
2022-08-26T09:53:09.901Z,100328.97
2022-08-26T09:55:43.552Z,100324.31
2022-08-26T09:58:15.833Z,100329.56
2022-08-26T10:00:56.228Z,100317.84
2022-08-26T10:03:31.704Z,100312.72
2022-08-26T10:06:02.172Z,100313.13
2022-08-26T10:08:34.254Z,100309.16
2022-08-26T10:11:06.731Z,100317.69
2022-08-26T10:13:38.912Z,100308.56
2022-08-26T10:16:15.490Z,100314.84
2022-08-26T10:18:48.972Z,100321.41
2022-08-26T10:21:26.113Z,100316.53
2022-08-26T10:23:58.851Z,100314.16
2022-08-26T10:26:34.192Z,100317.53
2022-08-26T10:29:11.429Z,100302.59
2022-08-26T10:31:45.920Z,100312.72
2022-08-26T10:34:17.911Z,100300.66
2022-08-26T10:37:14.347Z,100299.28
2022-08-26T10:39:57.014Z,100294.16
2022-08-26T10:42:33.556Z,100296.53
2022-08-26T10:45:11.621Z,100290.75
2022-08-26T10:47:48.792Z,100284.06
2022-08-26T10:50:18.865Z,100285.66
2022-08-26T10:52:59.013Z,100287.81
2022-08-26T10:55:37.221Z,100281.16
2022-08-26T10:58:26.501Z,100278.66
2022-08-26T11:01:22.738Z,100270.25
2022-08-26T11:04:01.395Z,100266.38
2022-08-26T11:06:31.852Z,100273.75
2022-08-26T11:09:01.105Z,100277.91
2022-08-26T11:11:50.072Z,100273.34
2022-08-26T11:14:46.163Z,100268.22
2022-08-26T11:18:01.934Z,100268.28
2022-08-26T11:20:39.129Z,100268.91
2022-08-26T11:23:42.812Z,100263.56
2022-08-26T11:26:18.908Z,100268.44
2022-08-26T11:29:04.674Z,100259.31
2022-08-26T11:31:58.919Z,100266.00
2022-08-26T11:35:03.941Z,100271.16
2022-08-26T11:37:40.635Z,100266.78
2022-08-26T11:40:12.849Z,100258.72
2022-08-26T11:42:44.413Z,100264.44
2022-08-26T11:45:19.359Z,100254.31
2022-08-26T11:47:49.473Z,100248.78
2022-08-26T11:50:21.134Z,100257.38
2022-08-26T11:52:55.252Z,100244.53
2022-08-26T11:55:24.376Z,100249.06
2022-08-26T11:57:55.732Z,100246.41
2022-08-26T12:00:26.533Z,100255.66
2022-08-26T12:02:56.055Z,100244.72
2022-08-26T12:05:31.144Z,100246.28
2022-08-26T12:08:08.352Z,100239.97
2022-08-26T12:10:38.047Z,100249.44
2022-08-26T12:13:08.653Z,100249.69
2022-08-26T12:15:36.913Z,100238.50
2022-08-26T12:18:29.348Z,100243.34
2022-08-26T12:21:01.537Z,100243.59
2022-08-26T12:23:43.349Z,100229.72
2022-08-26T12:26:20.579Z,100236.31
2022-08-26T12:28:52.633Z,100234.09
2022-08-26T12:31:24.517Z,100239.69
2022-08-26T12:33:54.674Z,100240.19
2022-08-26T12:36:27.626Z,100247.16
2022-08-26T12:38:59.113Z,100245.34
2022-08-26T12:41:47.784Z,100241.19
2022-08-26T12:44:35.760Z,100238.94
2022-08-26T12:47:09.872Z,100240.91
2022-08-26T12:49:40.153Z,100239.72
2022-08-26T12:52:30.028Z,100237.31
2022-08-26T12:55:03.151Z,100234.84
2022-08-26T12:57:36.056Z,100246.09
2022-08-26T13:00:29.952Z,100244.13
2022-08-26T13:02:57.956Z,100239.50
2022-08-26T13:05:28.852Z,100228.91
2022-08-26T13:08:16.712Z,100225.59
2022-08-26T13:10:48.980Z,100226.31
2022-08-26T13:13:17.353Z,100228.41
2022-08-26T13:15:45.833Z,100224.53
2022-08-26T13:18:14.132Z,100223.78
2022-08-26T13:21:02.453Z,100225.59
2022-08-26T13:23:30.992Z,100212.84
2022-08-26T13:26:00.560Z,100219.03
2022-08-26T13:28:28.915Z,100209.03
2022-08-26T13:30:57.349Z,100209.75
2022-08-26T13:33:26.322Z,100209.41
2022-08-26T13:35:54.941Z,100210.03
2022-08-26T13:38:33.734Z,100208.56
2022-08-26T13:41:05.253Z,100202.72
2022-08-26T13:43:33.991Z,100205.38
2022-08-26T13:46:02.752Z,100197.63
2022-08-26T13:48:31.893Z,100195.66
2022-08-26T13:51:00.152Z,100200.03
2022-08-26T13:53:29.500Z,100193.69
2022-08-26T13:55:58.092Z,100200.41
2022-08-26T13:58:28.660Z,100199.25
2022-08-26T14:00:58.210Z,100191.91
2022-08-26T14:03:26.724Z,100194.91
2022-08-26T14:05:55.332Z,100199.09
2022-08-26T14:08:24.252Z,100197.94
2022-08-26T14:10:52.681Z,100190.44
2022-08-26T14:13:21.279Z,100196.25
2022-08-26T14:15:50.969Z,100194.06
2022-08-26T14:18:22.472Z,100192.81
2022-08-26T14:21:10.411Z,100189.84
2022-08-26T14:23:38.732Z,100196.84
2022-08-26T14:26:08.322Z,100191.69
2022-08-26T14:28:37.034Z,100195.56
2022-08-26T14:33:54.552Z,100188.97
2022-08-26T14:36:40.233Z,100189.00
2022-08-26T14:39:11.292Z,100191.47
2022-08-26T14:41:54.003Z,100190.44
2022-08-26T14:44:27.957Z,100188.34
2022-08-26T14:47:00.033Z,100181.50
2022-08-26T14:49:28.349Z,100179.13
2022-08-26T14:51:56.772Z,100179.81
2022-08-26T14:54:24.380Z,100187.13
2022-08-26T14:56:55.391Z,100189.31
2022-08-26T14:59:26.232Z,100181.66
2022-08-26T15:01:55.596Z,100182.84
2022-08-26T15:04:25.793Z,100175.94
2022-08-26T15:06:55.540Z,100174.47
2022-08-26T15:09:24.993Z,100169.38
2022-08-26T15:12:12.452Z,100174.22
2022-08-26T15:14:40.691Z,100178.38
2022-08-26T15:17:09.113Z,100170.84
2022-08-26T15:19:40.593Z,100168.38
2022-08-26T15:22:09.474Z,100163.88
2022-08-26T15:24:37.853Z,100167.19
2022-08-26T15:27:06.435Z,100170.34
2022-08-26T15:29:36.216Z,100170.09
2022-08-26T15:32:05.671Z,100175.94
2022-08-26T15:34:34.172Z,100162.81
2022-08-26T15:37:03.761Z,100170.59
2022-08-26T15:39:31.970Z,100168.34
2022-08-26T15:42:00.856Z,100171.03
2022-08-26T15:44:29.513Z,100164.25
2022-08-26T15:46:58.991Z,100169.13
2022-08-26T15:49:28.099Z,100176.91
2022-08-26T15:51:56.573Z,100169.38
2022-08-26T15:57:14.393Z,100163.38
2022-08-26T15:59:44.192Z,100163.00
2022-08-26T16:02:12.499Z,100162.28
2022-08-26T16:04:40.832Z,100159.81
2022-08-26T16:07:12.734Z,100160.28
2022-08-26T16:09:42.332Z,100162.47
2022-08-26T16:12:10.658Z,100159.75
2022-08-26T16:14:44.175Z,100164.84
2022-08-26T16:17:12.640Z,100156.91
2022-08-26T16:19:41.052Z,100156.19
2022-08-26T16:22:09.339Z,100150.94
2022-08-26T16:24:37.872Z,100153.50
2022-08-26T16:27:08.972Z,100154.06
2022-08-26T16:29:39.371Z,100157.69
2022-08-26T16:32:08.961Z,100149.09
2022-08-26T16:34:37.452Z,100149.94
2022-08-26T16:37:15.773Z,100146.28
2022-08-26T16:39:45.287Z,100151.88
2022-08-26T16:42:15.731Z,100148.22
2022-08-26T16:44:46.751Z,100153.31
2022-08-26T16:47:16.713Z,100150.78
2022-08-26T16:49:45.413Z,100147.47
2022-08-26T16:52:14.145Z,100148.22
2022-08-26T16:54:43.651Z,100151.50
2022-08-26T16:57:14.413Z,100152.47
2022-08-26T16:59:42.931Z,100142.88
2022-08-26T17:02:11.911Z,100147.97
2022-08-26T17:04:41.252Z,100149.69
2022-08-26T17:07:14.733Z,100145.19
2022-08-26T17:09:43.612Z,100148.97
2022-08-26T17:12:12.315Z,100148.97
2022-08-26T17:14:42.419Z,100141.97
2022-08-26T17:17:14.931Z,100149.03
2022-08-26T17:19:47.259Z,100146.53
2022-08-26T17:22:16.232Z,100149.31
2022-08-26T17:24:44.473Z,100151.94
2022-08-26T17:27:14.460Z,100153.31
2022-08-26T17:29:44.931Z,100147.19
2022-08-26T17:32:13.351Z,100148.81
2022-08-26T17:34:41.911Z,100143.81
2022-08-26T17:37:10.532Z,100142.50
2022-08-26T17:39:42.632Z,100139.94
2022-08-26T17:42:12.271Z,100145.22
2022-08-26T17:44:40.592Z,100142.25
2022-08-26T17:47:10.512Z,100138.09
2022-08-26T17:49:38.892Z,100128.81
2022-08-26T17:52:11.355Z,100142.88
2022-08-26T17:54:39.891Z,100139.59
2022-08-26T17:57:10.598Z,100145.56
2022-08-26T17:59:40.929Z,100138.91
2022-08-26T18:02:10.812Z,100131.25
2022-08-26T18:04:39.412Z,100136.66
2022-08-26T18:07:07.746Z,100133.81
2022-08-26T18:09:36.231Z,100134.22
2022-08-26T18:12:04.982Z,100133.38
2022-08-26T18:14:34.292Z,100129.75
2022-08-26T18:17:03.115Z,100137.09
2022-08-26T18:19:33.127Z,100134.00
2022-08-26T18:22:01.680Z,100137.84
2022-08-26T18:24:32.312Z,100138.47
2022-08-26T18:27:00.751Z,100135.72
2022-08-26T18:29:29.192Z,100138.44
2022-08-26T18:31:58.271Z,100138.53
2022-08-26T18:34:31.619Z,100142.19
2022-08-26T18:37:02.138Z,100134.47
2022-08-26T18:39:30.458Z,100131.72
2022-08-26T18:41:58.845Z,100145.63
2022-08-26T18:44:27.133Z,100143.66
2022-08-26T18:46:55.811Z,100139.13
2022-08-26T18:49:24.392Z,100138.19
2022-08-26T18:51:52.691Z,100145.22
2022-08-26T18:54:22.465Z,100139.72
2022-08-26T18:56:50.792Z,100142.94
2022-08-26T18:59:19.012Z,100139.34
2022-08-26T19:01:50.885Z,100144.63
2022-08-26T19:04:19.642Z,100144.75
2022-08-26T19:06:49.552Z,100149.06
2022-08-26T19:09:19.152Z,100141.81
2022-08-26T19:11:50.739Z,100148.63
2022-08-26T19:14:19.792Z,100144.72
2022-08-26T19:16:50.781Z,100145.25
2022-08-26T19:19:19.988Z,100146.78
2022-08-26T19:21:49.712Z,100157.28
2022-08-26T19:24:19.832Z,100155.31
2022-08-26T19:26:57.867Z,100154.94
2022-08-26T19:29:28.402Z,100157.91
2022-08-26T19:31:56.912Z,100155.28
2022-08-26T19:34:25.457Z,100166.81
2022-08-26T19:36:54.698Z,100173.41
2022-08-26T19:39:23.012Z,100174.50
2022-08-26T19:41:53.416Z,100171.22
2022-08-26T19:44:40.752Z,100162.31
2022-08-26T19:47:10.733Z,100177.84
2022-08-26T19:49:39.093Z,100179.00
2022-08-26T19:52:07.872Z,100174.75
2022-08-26T19:54:36.492Z,100178.47
2022-08-26T19:57:06.809Z,100184.81
2022-08-26T19:59:36.312Z,100191.13
2022-08-26T20:02:09.987Z,100184.09
2022-08-26T20:04:39.606Z,100187.69
2022-08-26T20:07:07.814Z,100184.28
2022-08-26T20:09:36.813Z,100194.88
2022-08-26T20:12:08.592Z,100189.72
2022-08-26T20:14:37.490Z,100183.97
2022-08-26T20:17:06.668Z,100187.25
2022-08-26T20:19:52.915Z,100191.44
2022-08-26T20:22:21.812Z,100185.22
2022-08-26T20:24:51.113Z,100185.97
2022-08-26T20:27:27.452Z,100195.44
2022-08-26T20:30:09.054Z,100192.63
2022-08-26T20:32:38.150Z,100198.28
2022-08-26T20:35:09.329Z,100196.97
2022-08-26T20:37:38.313Z,100200.75
2022-08-26T20:40:08.906Z,100204.41
2022-08-26T20:42:39.220Z,100211.47
2022-08-26T20:45:08.932Z,100210.38
2022-08-26T20:47:37.632Z,100212.75
2022-08-26T20:50:08.112Z,100214.16
2022-08-26T20:52:36.712Z,100217.75
2022-08-26T20:55:05.652Z,100214.44
2022-08-26T20:57:33.912Z,100220.19
2022-08-26T21:00:04.272Z,100219.03
2022-08-26T21:02:32.593Z,100223.94
2022-08-26T21:05:01.143Z,100230.44
2022-08-26T21:07:30.259Z,100234.94
2022-08-26T21:09:58.591Z,100220.03
2022-08-26T21:12:28.028Z,100219.22
2022-08-26T21:14:56.372Z,100219.34
2022-08-26T21:17:25.951Z,100216.88
2022-08-26T21:19:54.372Z,100211.03
2022-08-26T21:22:23.213Z,100222.97
2022-08-26T21:24:51.399Z,100223.03
2022-08-26T21:27:26.188Z,100230.09
2022-08-26T21:29:55.558Z,100221.38
2022-08-26T21:32:25.311Z,100221.78
2022-08-26T21:34:56.013Z,100219.75
2022-08-26T21:37:25.055Z,100221.97
2022-08-26T21:39:55.108Z,100219.41
2022-08-26T21:42:24.533Z,100217.53
2022-08-26T21:44:53.372Z,100226.13
2022-08-26T21:47:22.374Z,100222.44
2022-08-26T21:49:52.011Z,100218.75
2022-08-26T21:52:21.357Z,100224.94
2022-08-26T21:54:49.988Z,100231.41
2022-08-26T21:57:19.071Z,100226.25
2022-08-26T21:59:47.551Z,100234.50
2022-08-26T22:02:16.083Z,100239.31
2022-08-26T22:04:48.521Z,100238.84
2022-08-26T22:07:20.391Z,100236.72
2022-08-26T22:09:49.658Z,100241.19
2022-08-26T22:12:19.058Z,100245.44
2022-08-26T22:14:48.216Z,100245.31
2022-08-26T22:17:17.125Z,100251.34
2022-08-26T22:19:46.790Z,100246.91
2022-08-26T22:22:15.812Z,100246.72
2022-08-26T22:24:46.391Z,100238.63
2022-08-26T22:27:15.232Z,100246.31
2022-08-26T22:29:43.751Z,100239.84
2022-08-26T22:32:12.106Z,100235.63
2022-08-26T22:34:42.351Z,100241.28
2022-08-26T22:37:10.691Z,100247.03
2022-08-26T22:39:39.251Z,100244.69
2022-08-26T22:42:09.171Z,100240.41
2022-08-26T22:44:37.624Z,100241.13
2022-08-26T22:47:06.492Z,100236.47
2022-08-26T22:49:34.831Z,100245.78
2022-08-26T22:52:03.491Z,100244.69
2022-08-26T22:54:31.771Z,100251.50
2022-08-26T22:57:00.512Z,100247.91
2022-08-26T22:59:30.291Z,100247.75
2022-08-26T23:01:58.751Z,100245.72
2022-08-26T23:04:27.165Z,100255.19
2022-08-26T23:06:55.491Z,100251.34
2022-08-26T23:09:23.871Z,100254.75
2022-08-26T23:11:52.212Z,100258.75
2022-08-26T23:14:20.571Z,100247.78
2022-08-26T23:16:51.810Z,100257.13
2022-08-26T23:19:23.373Z,100258.59
2022-08-26T23:21:51.991Z,100262.56
2022-08-26T23:24:20.492Z,100255.16
2022-08-26T23:26:49.133Z,100250.53
2022-08-26T23:29:17.433Z,100247.59
2022-08-26T23:31:46.023Z,100252.63
2022-08-26T23:34:33.693Z,100250.69
2022-08-26T23:37:02.571Z,100248.78
2022-08-26T23:39:36.511Z,100249.63
2022-08-26T23:42:06.553Z,100247.06
2022-08-26T23:44:35.391Z,100253.25
2022-08-26T23:47:04.919Z,100247.34
2022-08-26T23:49:35.639Z,100251.81
2022-08-26T23:52:22.873Z,100249.16
2022-08-26T23:54:52.454Z,100250.75
2022-08-26T23:57:22.791Z,100253.19
2022-08-26T23:59:51.451Z,100236.31
